createdAt,value
2022-12-04T00:01:20.293Z,0.94
2022-12-04T00:03:47.140Z,1.12
2022-12-04T00:06:17.085Z,1.16
2022-12-04T00:08:44.474Z,1.02
2022-12-04T00:11:12.844Z,0.92
2022-12-04T00:13:40.029Z,0.91
2022-12-04T00:16:08.672Z,0.99
2022-12-04T00:18:36.060Z,1.00
2022-12-04T00:21:08.405Z,0.77
2022-12-04T00:23:35.923Z,0.73
2022-12-04T00:26:16.688Z,0.87
2022-12-04T00:28:43.990Z,0.70
2022-12-04T00:31:13.864Z,0.87
2022-12-04T00:33:41.055Z,0.79
2022-12-04T00:36:10.373Z,0.91
2022-12-04T00:38:38.260Z,0.81
2022-12-04T00:41:05.054Z,0.91
2022-12-04T00:43:33.197Z,0.99
2022-12-04T00:45:59.808Z,0.93
2022-12-04T00:48:26.684Z,0.95
2022-12-04T00:50:54.173Z,1.09
2022-12-04T00:53:21.084Z,1.05
2022-12-04T00:55:47.663Z,1.13
2022-12-04T00:58:14.183Z,0.96
2022-12-04T01:00:42.222Z,1.03
2022-12-04T01:03:09.680Z,1.12
2022-12-04T01:05:42.300Z,0.94
2022-12-04T01:08:10.026Z,0.86
2022-12-04T01:10:39.668Z,0.76
2022-12-04T01:13:06.255Z,0.89
2022-12-04T01:15:33.431Z,1.00
2022-12-04T01:17:59.958Z,0.95
2022-12-04T01:20:26.409Z,0.96
2022-12-04T01:22:52.808Z,1.06
2022-12-04T01:25:19.310Z,0.93
2022-12-04T01:27:45.757Z,1.05
2022-12-04T01:30:12.658Z,0.97
2022-12-04T01:32:39.131Z,1.06
2022-12-04T01:35:06.224Z,0.99
2022-12-04T01:37:32.993Z,0.93
2022-12-04T01:39:59.772Z,1.01
2022-12-04T01:42:26.813Z,1.12
2022-12-04T01:45:44.294Z,0.97
2022-12-04T01:48:24.878Z,1.00
2022-12-04T01:50:55.553Z,0.95
2022-12-04T01:53:22.378Z,0.94
2022-12-04T01:55:49.606Z,0.91
2022-12-04T01:58:19.366Z,0.93
2022-12-04T02:00:51.653Z,1.02
2022-12-04T02:03:18.367Z,0.97
2022-12-04T02:05:44.863Z,0.86
2022-12-04T02:08:11.486Z,1.10
2022-12-04T02:11:08.948Z,1.05
2022-12-04T02:13:41.421Z,1.13
2022-12-04T02:16:38.926Z,0.97
2022-12-04T02:19:05.396Z,0.89
2022-12-04T02:21:40.571Z,0.88
2022-12-04T02:24:46.766Z,1.01
2022-12-04T02:27:48.934Z,0.90
2022-12-04T02:30:15.678Z,0.98
2022-12-04T02:33:03.614Z,1.01
2022-12-04T02:35:55.080Z,1.08
2022-12-04T02:38:27.710Z,0.91
2022-12-04T02:41:03.243Z,0.98
2022-12-04T02:43:38.235Z,1.04
2022-12-04T02:46:15.019Z,0.82
2022-12-04T02:48:44.428Z,0.89
2022-12-04T02:51:14.708Z,0.97
2022-12-04T02:53:45.785Z,0.85
2022-12-04T02:56:17.009Z,0.97
2022-12-04T02:58:52.742Z,0.96
2022-12-04T03:01:26.825Z,0.98
2022-12-04T03:04:00.438Z,0.96
2022-12-04T03:06:31.651Z,0.84
2022-12-04T03:09:08.263Z,0.93
2022-12-04T03:11:37.973Z,0.95
2022-12-04T03:14:17.435Z,0.72
2022-12-04T03:16:44.959Z,0.70
2022-12-04T03:19:16.078Z,0.67
2022-12-04T03:21:49.898Z,0.75
2022-12-04T03:24:39.108Z,0.75
2022-12-04T03:27:29.115Z,0.88
2022-12-04T03:30:04.895Z,0.73
2022-12-04T03:32:42.552Z,0.91
2022-12-04T03:35:19.032Z,0.67
2022-12-04T03:38:11.502Z,0.68
2022-12-04T03:40:48.726Z,0.77
2022-12-04T03:43:29.404Z,0.91
2022-12-04T03:46:09.207Z,0.88
2022-12-04T03:48:47.449Z,0.86
2022-12-04T03:51:19.408Z,0.75
2022-12-04T03:53:54.915Z,0.74
2022-12-04T03:56:30.306Z,0.87
2022-12-04T03:59:09.343Z,0.82
2022-12-04T04:01:42.305Z,0.92
2022-12-04T04:04:14.023Z,0.92
2022-12-04T04:06:46.889Z,0.75
2022-12-04T04:09:19.566Z,0.69
2022-12-04T04:11:50.737Z,0.74
2022-12-04T04:14:52.596Z,0.75
2022-12-04T04:17:44.045Z,0.92
2022-12-04T04:20:39.424Z,0.89
2022-12-04T04:23:29.884Z,0.89
2022-12-04T04:25:59.693Z,0.93
2022-12-04T04:28:46.506Z,0.89
2022-12-04T04:31:27.280Z,0.84
2022-12-04T04:34:07.788Z,0.87
2022-12-04T04:37:01.472Z,0.83
2022-12-04T04:39:27.951Z,0.93
2022-12-04T04:41:59.393Z,0.80
2022-12-04T04:44:37.995Z,1.04
2022-12-04T04:47:09.252Z,1.05
2022-12-04T04:49:39.201Z,0.93
2022-12-04T04:52:06.218Z,0.98
2022-12-04T04:54:35.475Z,0.89
2022-12-04T04:57:02.089Z,1.05
2022-12-04T04:59:28.648Z,0.84
2022-12-04T05:01:55.258Z,0.86
2022-12-04T05:04:21.785Z,0.94
2022-12-04T05:06:48.977Z,0.99
2022-12-04T05:09:15.668Z,0.98
2022-12-04T05:11:42.235Z,0.97
2022-12-04T05:14:09.743Z,0.88
2022-12-04T05:16:36.594Z,1.08
2022-12-04T05:19:21.776Z,0.74
2022-12-04T05:21:48.249Z,0.74
2022-12-04T05:24:14.797Z,0.75
2022-12-04T05:26:41.310Z,0.89
2022-12-04T05:29:07.887Z,0.97
2022-12-04T05:31:34.414Z,0.78
2022-12-04T05:34:00.950Z,1.06
2022-12-04T05:36:27.416Z,0.89
2022-12-04T05:38:53.933Z,0.78
2022-12-04T05:41:20.366Z,0.89
2022-12-04T05:43:46.824Z,0.92
2022-12-04T05:46:13.425Z,0.98
2022-12-04T05:48:39.932Z,0.81
2022-12-04T05:51:10.788Z,0.84
2022-12-04T05:53:38.435Z,0.76
2022-12-04T05:56:06.303Z,0.91
2022-12-04T05:58:37.808Z,1.10
2022-12-04T06:01:16.413Z,1.17
2022-12-04T06:03:43.002Z,1.23
2022-12-04T06:06:24.023Z,1.02
2022-12-04T06:08:52.927Z,1.04
2022-12-04T06:11:27.866Z,0.84
2022-12-04T06:13:54.445Z,0.96
2022-12-04T06:16:24.525Z,1.03
2022-12-04T06:18:53.116Z,1.07
2022-12-04T06:21:21.905Z,0.77
2022-12-04T06:23:48.376Z,0.93
2022-12-04T06:26:15.124Z,0.93
2022-12-04T06:28:41.630Z,0.98
2022-12-04T06:31:10.583Z,1.02
2022-12-04T06:33:38.958Z,0.99
2022-12-04T06:36:08.583Z,1.03
2022-12-04T06:38:35.490Z,0.97
2022-12-04T06:41:10.374Z,1.01
2022-12-04T06:43:37.520Z,1.05
2022-12-04T06:46:08.291Z,0.99
2022-12-04T06:48:35.087Z,0.90
2022-12-04T06:51:26.270Z,0.97
2022-12-04T06:53:53.127Z,0.85
2022-12-04T06:56:22.911Z,1.01
2022-12-04T06:58:51.388Z,0.85
2022-12-04T07:01:20.966Z,0.81
2022-12-04T07:03:51.664Z,0.81
2022-12-04T07:06:26.819Z,0.92
2022-12-04T07:09:01.810Z,0.88
2022-12-04T07:11:29.754Z,1.01
2022-12-04T07:13:56.691Z,0.97
2022-12-04T07:16:24.701Z,1.00
2022-12-04T07:18:53.691Z,1.06
2022-12-04T07:21:24.043Z,0.99
2022-12-04T07:23:52.687Z,0.95
2022-12-04T07:26:20.258Z,0.92
2022-12-04T07:28:47.322Z,1.01
2022-12-04T07:31:17.221Z,0.98
2022-12-04T07:33:44.921Z,0.86
2022-12-04T07:36:14.791Z,0.93
2022-12-04T07:38:41.856Z,0.73
2022-12-04T07:41:11.514Z,0.88
2022-12-04T07:43:38.296Z,0.83
2022-12-04T07:46:13.390Z,0.80
2022-12-04T07:48:40.437Z,0.92
2022-12-04T07:51:18.389Z,0.95
2022-12-04T07:53:45.916Z,0.79
2022-12-04T07:56:13.218Z,0.79
2022-12-04T07:58:40.355Z,0.87
2022-12-04T08:01:14.169Z,0.87
2022-12-04T08:03:47.486Z,1.02
2022-12-04T08:06:14.901Z,0.95
2022-12-04T08:08:41.400Z,0.86
2022-12-04T08:11:10.344Z,0.98
2022-12-04T08:13:37.016Z,0.90
2022-12-04T08:16:08.129Z,0.98
2022-12-04T08:18:34.594Z,0.89
2022-12-04T08:21:04.922Z,1.00
2022-12-04T08:23:31.723Z,1.08
2022-12-04T08:26:00.340Z,0.97
2022-12-04T08:28:27.274Z,0.91
2022-12-04T08:30:53.763Z,0.99
2022-12-04T08:33:20.462Z,1.02
2022-12-04T08:35:46.955Z,0.90
2022-12-04T08:38:13.459Z,0.95
2022-12-04T08:40:39.952Z,1.05
2022-12-04T08:43:06.445Z,1.02
2022-12-04T08:45:32.908Z,1.03
2022-12-04T08:47:59.410Z,1.08
2022-12-04T08:50:25.963Z,0.98
2022-12-04T08:52:52.452Z,1.02
2022-12-04T08:55:19.324Z,1.07
2022-12-04T08:57:45.728Z,1.13
2022-12-04T09:00:15.421Z,1.11
2022-12-04T09:02:42.191Z,1.18
2022-12-04T09:05:08.794Z,1.35
2022-12-04T09:07:35.692Z,1.12
2022-12-04T09:10:02.186Z,1.22
2022-12-04T09:12:28.736Z,1.29
2022-12-04T09:14:55.245Z,1.13
2022-12-04T09:17:21.761Z,1.19
2022-12-04T09:19:48.277Z,1.16
2022-12-04T09:22:14.771Z,1.28
2022-12-04T09:24:41.296Z,1.27
2022-12-04T09:27:14.306Z,1.16
2022-12-04T09:29:41.288Z,1.20
2022-12-04T09:32:07.734Z,1.29
2022-12-04T09:34:34.227Z,1.35
2022-12-04T09:37:00.868Z,1.22
2022-12-04T09:39:27.412Z,1.29
2022-12-04T09:42:08.230Z,1.34
2022-12-04T09:44:45.609Z,1.26
2022-12-04T09:47:39.975Z,1.17
2022-12-04T09:50:06.794Z,1.26
2022-12-04T09:52:59.983Z,1.22
2022-12-04T09:55:45.645Z,1.24
2022-12-04T09:58:20.507Z,1.26
2022-12-04T10:00:51.238Z,1.20
2022-12-04T10:03:20.805Z,1.22
2022-12-04T10:06:16.705Z,1.17
2022-12-04T10:08:46.266Z,1.21
2022-12-04T10:11:16.032Z,1.15
2022-12-04T10:14:13.501Z,1.25
2022-12-04T10:17:02.850Z,1.01
2022-12-04T10:19:37.514Z,0.96
2022-12-04T10:22:30.286Z,1.05
2022-12-04T10:25:01.335Z,1.14
2022-12-04T10:27:44.696Z,1.05
2022-12-04T10:30:20.506Z,1.18
2022-12-04T10:32:48.563Z,1.11
2022-12-04T10:35:24.446Z,1.21
2022-12-04T10:37:56.884Z,1.33
2022-12-04T10:40:31.413Z,1.22
2022-12-04T10:43:11.775Z,1.18
2022-12-04T10:45:38.250Z,1.31
2022-12-04T10:48:05.172Z,1.13
2022-12-04T10:50:31.704Z,1.15
2022-12-04T10:52:58.139Z,1.05
2022-12-04T10:55:36.551Z,1.05
2022-12-04T10:58:03.161Z,1.14
2022-12-04T11:00:32.272Z,1.14
2022-12-04T11:03:08.649Z,1.14
2022-12-04T11:05:40.235Z,1.13
2022-12-04T11:08:07.770Z,1.13
2022-12-04T11:10:43.195Z,1.23
2022-12-04T11:13:12.668Z,1.28
2022-12-04T11:15:45.391Z,1.31
2022-12-04T11:18:35.888Z,1.27
2022-12-04T11:21:07.691Z,1.35
2022-12-04T11:23:43.295Z,1.20
2022-12-04T11:26:10.858Z,1.39
2022-12-04T11:28:42.139Z,1.30
2022-12-04T11:31:16.414Z,1.25
2022-12-04T11:33:49.896Z,1.45
2022-12-04T11:36:24.504Z,1.34
2022-12-04T11:38:53.787Z,1.35
2022-12-04T11:41:32.266Z,1.42
2022-12-04T11:44:00.621Z,1.50
2022-12-04T11:46:34.048Z,1.42
2022-12-04T11:49:03.364Z,1.46
2022-12-04T11:51:51.649Z,1.51
2022-12-04T11:54:27.278Z,1.41
2022-12-04T11:57:15.857Z,1.34
2022-12-04T11:59:53.182Z,1.38
2022-12-04T12:02:34.140Z,1.52
2022-12-04T12:05:14.946Z,1.42
2022-12-04T12:08:04.376Z,1.52
2022-12-04T12:10:40.086Z,1.50
2022-12-04T12:13:12.389Z,1.60
2022-12-04T12:15:45.611Z,1.46
2022-12-04T12:18:48.982Z,1.44
2022-12-04T12:21:33.189Z,1.56
2022-12-04T12:24:19.594Z,1.41
2022-12-04T12:26:54.837Z,1.33
2022-12-04T12:29:42.442Z,1.57
2022-12-04T12:32:23.719Z,1.65
2022-12-04T12:34:51.055Z,1.46
2022-12-04T12:37:29.984Z,1.47
2022-12-04T12:39:56.507Z,1.40
2022-12-04T12:42:34.446Z,1.40
2022-12-04T12:45:07.550Z,1.50
2022-12-04T12:47:41.364Z,1.53
2022-12-04T12:50:18.368Z,1.47
2022-12-04T12:52:54.279Z,1.54
2022-12-04T12:55:25.357Z,1.58
2022-12-04T12:58:04.353Z,1.65
2022-12-04T13:00:36.935Z,1.61
2022-12-04T13:03:42.863Z,1.67
2022-12-04T13:06:20.762Z,1.60
2022-12-04T13:09:25.557Z,1.39
2022-12-04T13:11:58.124Z,1.39
2022-12-04T13:14:24.709Z,1.60
2022-12-04T13:16:55.821Z,1.67
2022-12-04T13:19:31.507Z,1.61
2022-12-04T13:22:09.838Z,1.63
2022-12-04T13:25:01.094Z,1.58
2022-12-04T13:27:52.224Z,1.57
2022-12-04T13:30:20.574Z,1.65
2022-12-04T13:33:13.060Z,1.57
2022-12-04T13:36:17.254Z,1.59
2022-12-04T13:39:15.786Z,1.62
2022-12-04T13:41:42.347Z,1.41
2022-12-04T13:44:22.982Z,1.47
2022-12-04T13:47:07.661Z,1.53
2022-12-04T13:49:42.197Z,1.47
2022-12-04T13:52:40.098Z,1.53
2022-12-04T13:55:25.457Z,1.48
2022-12-04T13:58:00.579Z,1.50
2022-12-04T14:00:35.213Z,1.47
2022-12-04T14:03:20.955Z,1.47
2022-12-04T14:05:48.370Z,1.40
2022-12-04T14:08:20.732Z,1.62
2022-12-04T14:11:11.935Z,1.61
2022-12-04T14:13:51.717Z,1.60
2022-12-04T14:16:22.782Z,1.52
2022-12-04T14:18:53.849Z,1.47
2022-12-04T14:21:20.697Z,1.53
2022-12-04T14:23:47.712Z,1.63
2022-12-04T14:26:37.411Z,1.52
2022-12-04T14:29:30.048Z,1.61
2022-12-04T14:32:00.457Z,1.59
2022-12-04T14:34:31.805Z,1.61
2022-12-04T14:36:59.759Z,1.69
2022-12-04T14:39:45.414Z,1.57
2022-12-04T14:42:17.895Z,1.51
2022-12-04T14:44:46.529Z,1.58
2022-12-04T14:47:37.568Z,1.70
2022-12-04T14:50:22.474Z,1.58
2022-12-04T14:52:48.838Z,1.34
2022-12-04T14:55:25.852Z,1.46
2022-12-04T14:58:31.088Z,1.42
2022-12-04T15:01:03.939Z,1.50
2022-12-04T15:03:35.306Z,1.39
2022-12-04T15:06:05.606Z,1.52
2022-12-04T15:08:32.836Z,1.42
2022-12-04T15:11:17.775Z,1.56
2022-12-04T15:13:44.306Z,1.51
2022-12-04T15:16:17.068Z,1.50
2022-12-04T15:19:00.447Z,1.62
2022-12-04T15:21:41.013Z,1.53
2022-12-04T15:24:20.446Z,1.60
2022-12-04T15:26:48.811Z,1.47
2022-12-04T15:29:21.448Z,1.49
2022-12-04T15:31:56.501Z,1.54
2022-12-04T15:34:32.578Z,1.39
2022-12-04T15:37:09.425Z,1.46
2022-12-04T15:39:37.939Z,1.54
2022-12-04T15:42:23.721Z,1.52
2022-12-04T15:44:52.378Z,1.57
2022-12-04T15:47:24.816Z,1.43
2022-12-04T15:49:51.600Z,1.50
2022-12-04T15:52:21.273Z,1.47
2022-12-04T15:54:59.358Z,1.54
2022-12-04T15:57:40.981Z,1.49
2022-12-04T16:00:22.235Z,1.52
2022-12-04T16:02:48.935Z,1.52
2022-12-04T16:05:21.512Z,1.42
2022-12-04T16:07:56.959Z,1.42
2022-12-04T16:10:33.509Z,1.43
2022-12-04T16:13:05.384Z,1.58
2022-12-04T16:15:38.512Z,1.64
2022-12-04T16:18:06.307Z,1.41
2022-12-04T16:20:38.409Z,1.53
2022-12-04T16:23:05.445Z,1.46
2022-12-04T16:25:32.383Z,1.49
2022-12-04T16:27:59.512Z,1.37
2022-12-04T16:30:31.635Z,1.44
2022-12-04T16:32:58.570Z,1.54
2022-12-04T16:35:25.032Z,1.51
2022-12-04T16:37:51.581Z,1.54
2022-12-04T16:40:18.168Z,1.50
2022-12-04T16:42:44.694Z,1.52
2022-12-04T16:45:14.048Z,1.56
2022-12-04T16:47:40.485Z,1.55
2022-12-04T16:50:07.917Z,1.50
2022-12-04T16:52:34.412Z,1.50
2022-12-04T16:55:04.926Z,1.48
2022-12-04T16:57:31.972Z,1.58
2022-12-04T16:59:58.816Z,1.48
2022-12-04T17:02:26.890Z,1.47
2022-12-04T17:04:57.484Z,1.47
2022-12-04T17:07:24.675Z,1.47
2022-12-04T17:09:51.131Z,1.56
2022-12-04T17:12:17.574Z,1.56
2022-12-04T17:14:44.090Z,1.64
2022-12-04T17:17:10.609Z,1.52
2022-12-04T17:19:37.175Z,1.41
2022-12-04T17:22:03.661Z,1.57
2022-12-04T17:24:30.103Z,1.55
2022-12-04T17:26:58.069Z,1.54
2022-12-04T17:29:24.592Z,1.59
2022-12-04T17:31:51.128Z,1.59
2022-12-04T17:34:17.635Z,1.66
2022-12-04T17:36:44.108Z,1.63
2022-12-04T17:39:11.786Z,1.56
2022-12-04T17:41:38.232Z,1.65
2022-12-04T17:44:04.791Z,1.52
2022-12-04T17:46:31.401Z,1.62
2022-12-04T17:49:01.473Z,1.65
2022-12-04T17:51:30.472Z,1.67
2022-12-04T17:53:56.953Z,1.55
2022-12-04T17:56:24.138Z,1.54
2022-12-04T17:58:51.555Z,1.54
2022-12-04T18:01:21.496Z,1.62
2022-12-04T18:03:57.169Z,1.54
2022-12-04T18:06:29.442Z,1.61
2022-12-04T18:08:56.651Z,1.70
2022-12-04T18:11:25.769Z,1.67
2022-12-04T18:14:10.136Z,1.73
2022-12-04T18:16:41.980Z,1.64
2022-12-04T18:19:08.652Z,1.64
2022-12-04T18:21:35.089Z,1.66
2022-12-04T18:24:03.893Z,1.74
2022-12-04T18:26:39.470Z,1.75
2022-12-04T18:29:06.760Z,1.78
2022-12-04T18:31:33.775Z,1.81
2022-12-04T18:34:00.713Z,1.82
2022-12-04T18:36:29.832Z,1.73
2022-12-04T18:38:59.606Z,1.72
2022-12-04T18:41:27.420Z,1.72
2022-12-04T18:43:54.254Z,1.75
2022-12-04T18:46:21.668Z,1.69
2022-12-04T18:48:49.774Z,1.79
2022-12-04T18:51:21.310Z,1.79
2022-12-04T18:53:48.168Z,1.82
2022-12-04T18:56:14.817Z,1.85
2022-12-04T18:58:41.768Z,1.82
2022-12-04T19:01:13.632Z,1.88
2022-12-04T19:03:40.933Z,1.77
2022-12-04T19:06:08.476Z,1.75
2022-12-04T19:08:41.462Z,1.92
2022-12-04T19:11:15.235Z,1.86
2022-12-04T19:13:42.573Z,1.79
2022-12-04T19:16:14.485Z,1.81
2022-12-04T19:18:42.370Z,1.74
2022-12-04T19:21:09.244Z,1.90
2022-12-04T19:23:35.746Z,1.78
2022-12-04T19:26:02.322Z,1.88
2022-12-04T19:28:28.947Z,1.93
2022-12-04T19:30:56.371Z,1.97
2022-12-04T19:33:24.062Z,1.81
2022-12-04T19:36:02.001Z,1.93
2022-12-04T19:38:29.953Z,1.98
2022-12-04T19:41:11.914Z,1.97
2022-12-04T19:43:40.338Z,1.94
2022-12-04T19:46:08.110Z,2.00
2022-12-04T19:48:40.741Z,1.98
2022-12-04T19:51:15.698Z,1.94
2022-12-04T19:53:42.509Z,1.81
2022-12-04T19:56:12.420Z,2.00
2022-12-04T19:58:39.341Z,1.94
2022-12-04T20:01:08.104Z,1.90
2022-12-04T20:03:34.999Z,1.96
2022-12-04T20:06:21.707Z,2.01
2022-12-04T20:08:53.781Z,1.99
2022-12-04T20:11:20.355Z,1.96
2022-12-04T20:13:48.780Z,1.96
2022-12-04T20:16:18.041Z,2.03
2022-12-04T20:18:45.362Z,2.00
2022-12-04T20:21:12.872Z,2.03
2022-12-04T20:23:49.464Z,1.97
2022-12-04T20:26:21.978Z,1.98
2022-12-04T20:28:48.675Z,1.90
2022-12-04T20:31:16.497Z,1.83
2022-12-04T20:33:44.593Z,1.95
2022-12-04T20:36:12.298Z,1.94
2022-12-04T20:38:39.873Z,1.99
2022-12-04T20:41:13.756Z,1.95
2022-12-04T20:43:40.167Z,1.97
2022-12-04T20:46:19.601Z,2.00
2022-12-04T20:48:50.079Z,2.04
2022-12-04T20:51:18.568Z,1.99
2022-12-04T20:53:46.551Z,1.95
2022-12-04T20:56:17.165Z,2.09
2022-12-04T20:58:43.655Z,2.14
2022-12-04T21:01:15.796Z,2.07
2022-12-04T21:03:42.753Z,2.10
2022-12-04T21:06:14.377Z,2.09
2022-12-04T21:08:53.572Z,2.16
2022-12-04T21:11:31.879Z,2.11
2022-12-04T21:14:18.944Z,2.12
2022-12-04T21:16:45.809Z,2.23
2022-12-04T21:19:14.965Z,2.23
2022-12-04T21:21:41.762Z,2.19
2022-12-04T21:24:10.731Z,2.26
2022-12-04T21:26:37.442Z,2.22
2022-12-04T21:29:05.524Z,2.20
2022-12-04T21:31:32.130Z,2.19
2022-12-04T21:34:00.353Z,2.17
2022-12-04T21:36:27.891Z,2.20
2022-12-04T21:38:55.220Z,2.26
2022-12-04T21:41:40.721Z,2.23
2022-12-04T21:44:12.381Z,2.19
2022-12-04T21:46:39.344Z,2.22
2022-12-04T21:49:06.438Z,2.22
2022-12-04T21:51:56.398Z,2.31
2022-12-04T21:54:19.368Z,2.22
2022-12-04T21:56:46.085Z,2.26
2022-12-04T21:59:12.819Z,2.30
2022-12-04T22:01:39.430Z,2.27
2022-12-04T22:04:06.154Z,2.22
2022-12-04T22:06:36.146Z,2.25
2022-12-04T22:09:06.187Z,2.28
2022-12-04T22:11:32.711Z,2.20
2022-12-04T22:13:59.225Z,2.24
2022-12-04T22:16:30.300Z,2.26
2022-12-04T22:18:58.138Z,2.31
2022-12-04T22:21:25.271Z,2.34
2022-12-04T22:23:59.991Z,2.32
2022-12-04T22:26:27.801Z,2.36
2022-12-04T22:28:54.848Z,2.36
2022-12-04T22:31:24.010Z,2.37
2022-12-04T22:33:53.219Z,2.34
2022-12-04T22:36:22.507Z,2.35
2022-12-04T22:41:35.856Z,2.36
2022-12-04T22:44:02.369Z,2.28
2022-12-04T22:46:28.996Z,2.34
2022-12-04T22:48:55.555Z,2.37
2022-12-04T22:51:22.714Z,2.40
2022-12-04T22:53:54.417Z,2.38
2022-12-04T22:56:29.688Z,2.39
2022-12-04T22:58:57.754Z,2.42
2022-12-04T23:01:26.925Z,2.38
2022-12-04T23:03:54.678Z,2.44
2022-12-04T23:06:24.446Z,2.43
2022-12-04T23:09:00.052Z,2.39
2022-12-04T23:11:27.265Z,2.46
2022-12-04T23:13:56.186Z,2.51
2022-12-04T23:16:24.358Z,2.53
2022-12-04T23:18:51.331Z,2.54
2022-12-04T23:21:20.167Z,2.50
2022-12-04T23:23:47.695Z,2.51
2022-12-04T23:26:20.707Z,2.58
2022-12-04T23:28:47.161Z,2.55
2022-12-04T23:31:14.789Z,2.53
2022-12-04T23:33:41.898Z,2.50
2022-12-04T23:36:10.832Z,2.53
2022-12-04T23:38:38.970Z,2.54
2022-12-04T23:41:08.681Z,2.47
2022-12-04T23:43:35.264Z,2.48
2022-12-04T23:46:05.894Z,2.55
2022-12-04T23:48:37.586Z,2.49
2022-12-04T23:51:04.054Z,2.53
2022-12-04T23:53:30.568Z,2.52
2022-12-04T23:56:08.341Z,2.53
2022-12-04T23:58:35.950Z,2.51
